createdAt,value
2023-01-11T11:12:45.923Z,25.00
2023-01-11T11:13:45.207Z,25.00
2023-01-11T11:14:46.426Z,25.00
2023-01-11T11:15:44.955Z,25.00
2023-01-11T11:16:44.905Z,25.00
2023-01-11T11:17:44.723Z,7.82
2023-01-11T11:18:44.568Z,0.00
2023-01-11T11:19:44.380Z,0.00
2023-01-11T11:20:44.327Z,0.00
2023-01-11T11:21:44.202Z,0.00
2023-01-11T11:22:44.108Z,0.00
2023-01-11T11:23:43.746Z,17.18
2023-01-11T11:24:43.551Z,25.00
2023-01-11T11:25:43.553Z,40.21
2023-01-11T11:26:43.215Z,37.74
2023-01-11T11:27:43.028Z,26.62
2023-01-11T11:28:42.846Z,31.71
2023-01-11T11:29:42.693Z,31.32
2023-01-11T11:30:42.531Z,26.20
2023-01-11T11:31:42.879Z,25.00
2023-01-11T11:32:42.164Z,31.04
2023-01-11T11:33:41.969Z,39.85
2023-01-11T11:34:41.786Z,27.60
2023-01-11T11:35:41.604Z,25.37
2023-01-11T11:36:41.425Z,29.49
2023-01-11T11:37:41.217Z,28.46
2023-01-11T11:38:41.046Z,25.59
2023-01-11T11:39:40.903Z,29.65
2023-01-11T11:40:40.683Z,31.51
2023-01-11T11:41:40.515Z,37.94
2023-01-11T11:42:40.316Z,36.69
2023-01-11T11:43:40.171Z,27.47
2023-01-11T11:44:40.943Z,42.53
2023-01-11T11:45:39.866Z,25.27
2023-01-11T11:46:39.650Z,37.28
2023-01-11T11:47:39.431Z,27.60
2023-01-11T11:48:39.229Z,31.39
2023-01-11T11:49:39.030Z,27.34
2023-01-11T11:50:45.907Z,29.92
2023-01-11T11:51:39.773Z,30.20
2023-01-11T11:52:38.569Z,30.85
2023-01-11T11:53:38.369Z,31.84
2023-01-11T11:54:52.003Z,35.69
